Time;durP1;ratioP1;P1;durP2;ratioP2;P2;SDS_P1;SDS_P2;PMS_P1;PMS_P2;Temp;Humidity;BMP_temperature;BMP_pressure;BME280_temperature;BME280_humidity;BME280_pressure;Samples;Min_cycle;Max_cycle;Signal;HPM_P1;HPM_P2
2023/10/28 00:00:50;;;;;;;8.98;3.22;;;;;;;;;;7371385;19;20013;-73
2023/10/28 00:03:16;;;;;;;7.65;2.75;;;;;;;;;;7390442;19;20028;-74
2023/10/28 00:05:41;;;;;;;9.45;3.08;;;;;;;;;;7370988;19;20017;-73
2023/10/28 00:08:07;;;;;;;7.68;2.97;;;;;;;;;;7369872;19;20500;-74
2023/10/28 00:10:34;;;;;;;10.40;2.83;;;;;;;;;;7371676;19;20533;-74
2023/10/28 00:12:59;;;;;;;6.30;2.50;;;;;;;;;;7368821;19;20476;-74
2023/10/28 00:15:25;;;;;;;7.30;3.00;;;;;;;;;;7391689;19;20009;-74
2023/10/28 00:17:51;;;;;;;7.43;2.80;;;;;;;;;;7370425;19;20539;-74
2023/10/28 00:20:17;;;;;;;5.93;2.67;;;;;;;;;;7374410;19;20121;-72
2023/10/28 00:22:47;;;;;;;10.48;2.70;;;;;;;;;;7370566;19;20464;-73
2023/10/28 00:25:16;;;;;;;8.05;2.83;;;;;;;;;;7370956;19;20007;-73
2023/10/28 00:27:44;;;;;;;6.13;2.55;;;;;;;;;;7392705;19;20010;-73
2023/10/28 00:30:10;;;;;;;6.60;2.45;;;;;;;;;;7367403;19;20083;-74
2023/10/28 00:32:40;;;;;;;9.68;2.60;;;;;;;;;;7367842;19;20536;-73
2023/10/28 00:35:11;;;;;;;6.72;2.45;;;;;;;;;;7370569;19;20002;-74
2023/10/28 00:37:37;;;;;;;;;;;;;;;;;;7370927;19;20472;-74
2023/10/28 00:40:05;;;;;;;7.10;2.38;;;;;;;;;;7370355;19;19925;-74
2023/10/28 00:42:33;;;;;;;7.18;2.78;;;;;;;;;;7391633;19;20453;-74
2023/10/28 00:44:58;;;;;;;8.60;2.00;;;;;;;;;;7369845;19;20041;-73
2023/10/28 00:47:23;;;;;;;6.05;2.30;;;;;;;;;;7369922;19;20683;-73
2023/10/28 00:49:51;;;;;;;5.20;1.98;;;;;;;;;;7367116;19;20064;-74
2023/10/28 00:52:19;;;;;;;7.43;2.35;;;;;;;;;;7367138;19;20027;-73
2023/10/28 00:54:47;;;;;;;5.00;1.88;;;;;;;;;;7376515;19;20013;-74
2023/10/28 00:57:15;;;;;;;5.82;1.88;;;;;;;;;;7391234;19;20007;-74
2023/10/28 00:59:42;;;;;;;4.38;1.60;;;;;;;;;;7369056;19;20508;-74
2023/10/28 01:02:08;;;;;;;3.55;1.60;;;;;;;;;;7367095;19;20030;-74
2023/10/28 01:04:34;;;;;;;6.35;1.75;;;;;;;;;;7369319;19;20026;-74
2023/10/28 01:07:00;;;;;;;3.75;1.70;;;;;;;;;;7368619;19;20010;-74
2023/10/28 01:09:26;;;;;;;3.80;1.50;;;;;;;;;;7389825;19;20018;-73
2023/10/28 01:11:53;;;;;;;4.25;1.50;;;;;;;;;;7367865;19;20061;-74
2023/10/28 01:14:19;;;;;;;2.92;1.42;;;;;;;;;;7368585;19;20002;-74
2023/10/28 01:16:45;;;;;;;7.38;1.80;;;;;;;;;;7369433;19;20010;-72
2023/10/28 01:19:10;;;;;;;2.40;1.50;;;;;;;;;;7369893;19;20006;-73
2023/10/28 01:21:36;;;;;;;3.97;1.88;;;;;;;;;;7391194;19;20031;-73
2023/10/28 01:24:01;;;;;;;4.00;1.58;;;;;;;;;;7366270;19;20111;-74
2023/10/28 01:26:27;;;;;;;2.47;1.30;;;;;;;;;;7368735;19;20054;-74
2023/10/28 01:28:53;;;;;;;4.22;1.65;;;;;;;;;;7367445;19;20014;-74
2023/10/28 01:31:19;;;;;;;4.13;1.40;;;;;;;;;;7368680;19;20393;-74
2023/10/28 01:33:44;;;;;;;3.75;1.58;;;;;;;;;;7377324;19;20003;-75
2023/10/28 01:36:09;;;;;;;2.58;1.60;;;;;;;;;;7383792;19;20001;-74
2023/10/28 01:38:36;;;;;;;4.95;1.48;;;;;;;;;;7368223;19;20002;-74
2023/10/28 01:41:02;;;;;;;2.15;1.20;;;;;;;;;;7370454;19;20405;-74
2023/10/28 01:43:27;;;;;;;3.08;1.52;;;;;;;;;;7369593;19;20010;-75
2023/10/28 01:45:52;;;;;;;2.95;1.60;;;;;;;;;;7369524;19;20340;-74
2023/10/28 01:48:18;;;;;;;2.83;1.25;;;;;;;;;;7388268;19;20046;-73
2023/10/28 01:50:43;;;;;;;1.20;1.10;;;;;;;;;;7367913;19;20018;-74
2023/10/28 01:53:08;;;;;;;1.17;1.10;;;;;;;;;;7365924;19;20482;-74
2023/10/28 01:55:34;;;;;;;0.95;0.85;;;;;;;;;;7367082;19;20090;-75
2023/10/28 01:58:00;;;;;;;0.93;0.88;;;;;;;;;;7367428;19;20477;-75
2023/10/28 02:00:30;;;;;;;2.60;1.05;;;;;;;;;;7389604;19;20018;-74
2023/10/28 02:02:56;;;;;;;1.77;0.88;;;;;;;;;;7366615;19;20038;-75
2023/10/28 02:05:21;;;;;;;3.38;1.10;;;;;;;;;;7368367;19;20067;-75
2023/10/28 02:07:47;;;;;;;0.93;0.90;;;;;;;;;;7372823;19;20014;-74
2023/10/28 02:10:12;;;;;;;1.38;1.00;;;;;;;;;;7371329;19;20121;-75
2023/10/28 02:12:37;;;;;;;1.20;1.00;;;;;;;;;;7394371;19;20007;-74
2023/10/28 02:15:04;;;;;;;1.10;1.00;;;;;;;;;;7372156;19;20003;-74
2023/10/28 02:17:30;;;;;;;1.77;0.88;;;;;;;;;;7371166;19;20014;-74
2023/10/28 02:19:56;;;;;;;1.52;1.05;;;;;;;;;;7367055;19;20010;-76
2023/10/28 02:22:22;;;;;;;1.20;0.93;;;;;;;;;;7365427;19;20006;-73
2023/10/28 02:24:47;;;;;;;1.42;1.08;;;;;;;;;;7365544;19;20014;-74
2023/10/28 02:27:12;;;;;;;1.50;1.10;;;;;;;;;;7387956;19;20018;-73
2023/10/28 02:29:38;;;;;;;6.82;1.33;;;;;;;;;;7364779;19;20093;-73
2023/10/28 02:32:08;;;;;;;0.93;0.93;;;;;;;;;;7365417;19;20029;-73
2023/10/28 02:34:34;;;;;;;1.60;1.02;;;;;;;;;;7366401;19;20010;-74
2023/10/28 02:36:59;;;;;;;2.53;1.10;;;;;;;;;;7367269;19;20014;-74
2023/10/28 02:39:26;;;;;;;2.15;1.20;;;;;;;;;;7387544;19;20554;-73
2023/10/28 02:41:52;;;;;;;2.60;1.33;;;;;;;;;;7366082;19;20417;-74
2023/10/28 02:44:17;;;;;;;1.90;1.30;;;;;;;;;;7363204;19;20003;-75
2023/10/28 02:46:43;;;;;;;1.88;1.30;;;;;;;;;;7366759;19;20014;-74
2023/10/28 02:49:08;;;;;;;1.60;1.30;;;;;;;;;;7364686;19;20098;-74
2023/10/28 02:51:33;;;;;;;2.85;1.30;;;;;;;;;;7389312;19;19994;-73
2023/10/28 02:53:59;;;;;;;1.90;1.42;;;;;;;;;;7367352;19;20078;-75
2023/10/28 02:56:24;;;;;;;3.63;1.60;;;;;;;;;;7376399;19;20002;-73
2023/10/28 02:58:50;;;;;;;2.28;1.40;;;;;;;;;;7375068;19;20094;-73
2023/10/28 03:01:15;;;;;;;2.33;1.35;;;;;;;;;;7374411;19;20023;-74
2023/10/28 03:03:42;;;;;;;1.50;1.40;;;;;;;;;;7395574;19;20017;-74
2023/10/28 03:06:08;;;;;;;3.20;1.40;;;;;;;;;;7373028;19;20007;-74
2023/10/28 03:08:34;;;;;;;2.25;1.50;;;;;;;;;;7369906;19;20014;-74
2023/10/28 03:11:00;;;;;;;2.08;1.40;;;;;;;;;;7363811;19;20063;-75
2023/10/28 03:13:25;;;;;;;5.13;1.58;;;;;;;;;;7371141;19;20014;-75
2023/10/28 03:15:50;;;;;;;6.25;1.92;;;;;;;;;;7374689;19;20062;-75
2023/10/28 03:18:16;;;;;;;5.25;1.55;;;;;;;;;;7394246;19;20027;-74
2023/10/28 03:20:41;;;;;;;4.93;1.50;;;;;;;;;;7372595;19;20010;-74
2023/10/28 03:23:07;;;;;;;1.63;1.30;;;;;;;;;;7370057;19;20030;-75
2023/10/28 03:25:32;;;;;;;4.60;1.70;;;;;;;;;;7372767;19;20027;-75
2023/10/28 03:28:01;;;;;;;4.22;1.40;;;;;;;;;;7371793;19;20010;-75
2023/10/28 03:30:27;;;;;;;7.15;2.00;;;;;;;;;;7394124;19;20003;-74
2023/10/28 03:32:52;;;;;;;4.68;1.50;;;;;;;;;;7370000;19;20101;-74
2023/10/28 03:35:18;;;;;;;3.15;1.50;;;;;;;;;;7372015;19;20039;-74
2023/10/28 03:37:44;;;;;;;7.18;1.33;;;;;;;;;;7371773;19;20010;-74
2023/10/28 03:40:10;;;;;;;5.20;1.65;;;;;;;;;;7370575;19;20035;-74
2023/10/28 03:42:36;;;;;;;6.63;1.48;;;;;;;;;;7392739;19;20011;-74
2023/10/28 03:45:04;;;;;;;2.63;1.40;;;;;;;;;;7370949;19;20425;-74
2023/10/28 03:47:30;;;;;;;3.25;1.60;;;;;;;;;;7371689;19;20245;-72
2023/10/28 03:49:56;;;;;;;5.03;1.50;;;;;;;;;;7370533;19;20011;-72
2023/10/28 03:52:21;;;;;;;5.53;1.63;;;;;;;;;;7370620;19;20080;-73
2023/10/28 03:54:47;;;;;;;6.30;1.70;;;;;;;;;;7371224;19;20003;-74
2023/10/28 03:57:12;;;;;;;7.97;1.73;;;;;;;;;;7392653;19;20013;-73
2023/10/28 03:59:37;;;;;;;4.88;1.75;;;;;;;;;;7371953;19;20394;-73
2023/10/28 04:02:03;;;;;;;7.38;2.03;;;;;;;;;;7372605;19;20022;-73
2023/10/28 04:04:29;;;;;;;7.25;1.88;;;;;;;;;;7370798;19;20014;-73
2023/10/28 04:06:55;;;;;;;6.38;1.77;;;;;;;;;;7370980;19;20011;-73
2023/10/28 04:09:21;;;;;;;5.38;1.70;;;;;;;;;;7390577;19;20018;-73
2023/10/28 04:11:46;;;;;;;8.55;2.10;;;;;;;;;;7370606;19;20026;-74
2023/10/28 04:14:13;;;;;;;6.15;2.10;;;;;;;;;;7370138;19;20018;-74
2023/10/28 04:16:39;;;;;;;6.78;2.30;;;;;;;;;;7370057;19;20006;-74
2023/10/28 04:19:04;;;;;;;10.35;2.40;;;;;;;;;;7370638;19;20015;-74
2023/10/28 04:21:30;;;;;;;9.88;1.90;;;;;;;;;;7392234;19;20468;-74
2023/10/28 04:23:55;;;;;;;4.18;2.00;;;;;;;;;;7365087;19;20508;-74
2023/10/28 04:26:20;;;;;;;7.00;2.10;;;;;;;;;;7371385;19;20375;-74
2023/10/28 04:28:45;;;;;;;4.80;1.90;;;;;;;;;;7369786;19;20010;-74
2023/10/28 04:31:11;;;;;;;5.15;1.90;;;;;;;;;;7370491;19;20430;-74
2023/10/28 04:33:36;;;;;;;4.95;1.83;;;;;;;;;;7389609;19;20058;-74
2023/10/28 04:36:02;;;;;;;4.03;1.70;;;;;;;;;;7369151;19;20006;-74
2023/10/28 04:38:28;;;;;;;5.05;2.30;;;;;;;;;;7370508;19;20014;-74
2023/10/28 04:40:56;;;;;;;5.45;1.80;;;;;;;;;;7371237;19;20007;-74
2023/10/28 04:43:21;;;;;;;7.90;2.00;;;;;;;;;;7369683;19;20355;-74
2023/10/28 04:45:48;;;;;;;4.75;1.98;;;;;;;;;;7369792;19;20098;-75
2023/10/28 04:48:13;;;;;;;8.10;2.13;;;;;;;;;;7391405;19;20037;-74
2023/10/28 04:50:39;;;;;;;3.30;1.90;;;;;;;;;;7369457;19;20018;-72
2023/10/28 04:53:04;;;;;;;6.57;2.17;;;;;;;;;;7369193;19;20047;-74
2023/10/28 04:55:30;;;;;;;4.63;1.90;;;;;;;;;;7369990;19;20810;-73
2023/10/28 04:57:55;;;;;;;5.40;2.00;;;;;;;;;;7370521;19;20127;-75
2023/10/28 05:00:20;;;;;;;8.80;2.45;;;;;;;;;;7392028;19;20017;-75
2023/10/28 05:02:46;;;;;;;5.40;2.10;;;;;;;;;;7369717;19;20014;-74
2023/10/28 05:05:13;;;;;;;6.20;2.00;;;;;;;;;;7372653;19;20027;-73
2023/10/28 05:07:39;;;;;;;7.97;2.30;;;;;;;;;;7371007;19;20284;-74
2023/10/28 05:10:04;;;;;;;5.70;2.10;;;;;;;;;;7368595;19;20423;-74
2023/10/28 05:12:32;;;;;;;4.93;2.00;;;;;;;;;;7392583;19;20066;-74
2023/10/28 05:14:58;;;;;;;5.53;2.22;;;;;;;;;;7368023;19;20007;-74
2023/10/28 05:17:25;;;;;;;4.13;1.95;;;;;;;;;;7369636;19;20010;-74
2023/10/28 05:19:51;;;;;;;5.00;2.17;;;;;;;;;;7370439;19;20027;-73
2023/10/28 05:22:18;;;;;;;5.53;2.50;;;;;;;;;;7368812;19;20573;-73
2023/10/28 05:24:44;;;;;;;7.93;2.58;;;;;;;;;;7390265;19;19998;-75
2023/10/28 05:27:10;;;;;;;5.78;1.98;;;;;;;;;;7381294;19;20062;-75
2023/10/28 05:29:36;;;;;;;4.78;2.08;;;;;;;;;;7376139;19;20015;-74
2023/10/28 05:32:01;;;;;;;5.32;2.15;;;;;;;;;;7377906;19;20006;-74
2023/10/28 05:34:26;;;;;;;5.22;2.20;;;;;;;;;;7375175;19;20119;-74
2023/10/28 05:36:52;;;;;;;5.20;2.10;;;;;;;;;;7376601;19;19999;-75
2023/10/28 05:39:18;;;;;;;5.55;1.98;;;;;;;;;;7393531;19;20005;-75
2023/10/28 05:41:44;;;;;;;7.63;2.00;;;;;;;;;;7368117;19;20027;-75
2023/10/28 05:44:09;;;;;;;5.60;1.80;;;;;;;;;;7366967;19;20007;-74
2023/10/28 05:46:34;;;;;;;5.43;2.00;;;;;;;;;;7369129;19;20016;-74
2023/10/28 05:49:00;;;;;;;4.10;2.00;;;;;;;;;;7368152;19;19995;-75
2023/10/28 05:51:26;;;;;;;8.95;1.90;;;;;;;;;;7390449;19;20006;-74
2023/10/28 05:53:51;;;;;;;4.03;1.98;;;;;;;;;;7366527;19;20005;-74
2023/10/28 05:56:19;;;;;;;8.77;2.35;;;;;;;;;;7369443;19;20082;-75
2023/10/28 05:58:44;;;;;;;9.18;1.98;;;;;;;;;;7370090;19;20014;-75
2023/10/28 06:01:13;;;;;;;5.70;2.08;;;;;;;;;;7369297;19;20022;-74
2023/10/28 06:03:38;;;;;;;5.25;1.80;;;;;;;;;;7389780;19;20003;-74
2023/10/28 06:06:04;;;;;;;4.60;2.20;;;;;;;;;;7368680;19;20493;-74
2023/10/28 06:08:29;;;;;;;6.32;2.38;;;;;;;;;;7367286;19;20503;-73
2023/10/28 06:10:56;;;;;;;7.13;2.10;;;;;;;;;;7367705;19;20006;-73
2023/10/28 06:13:22;;;;;;;3.72;1.75;;;;;;;;;;7367409;19;20357;-75
2023/10/28 06:15:47;;;;;;;8.05;2.25;;;;;;;;;;7367120;19;20021;-75
2023/10/28 06:18:12;;;;;;;7.13;2.20;;;;;;;;;;7390138;19;20002;-73
2023/10/28 06:20:39;;;;;;;8.55;2.40;;;;;;;;;;7369127;19;20027;-74
2023/10/28 06:23:06;;;;;;;9.73;2.60;;;;;;;;;;7367152;19;20011;-74
2023/10/28 06:25:32;;;;;;;7.78;2.15;;;;;;;;;;7367815;19;20081;-75
2023/10/28 06:27:57;;;;;;;6.97;2.20;;;;;;;;;;7367361;19;20705;-73
2023/10/28 06:30:23;;;;;;;8.80;2.70;;;;;;;;;;7387205;19;20022;-74
2023/10/28 06:32:48;;;;;;;6.15;2.05;;;;;;;;;;7366815;19;20104;-74
2023/10/28 06:35:16;;;;;;;8.38;2.40;;;;;;;;;;7366770;19;20073;-73
2023/10/28 06:37:41;;;;;;;9.10;2.08;;;;;;;;;;7366153;19;20006;-74
2023/10/28 06:40:10;;;;;;;9.70;2.40;;;;;;;;;;7366977;19;20014;-74
2023/10/28 06:42:37;;;;;;;12.05;2.42;;;;;;;;;;7388879;19;20560;-75
2023/10/28 06:45:03;;;;;;;7.32;3.05;;;;;;;;;;7366806;19;20003;-73
2023/10/28 06:47:31;;;;;;;8.32;2.30;;;;;;;;;;7365465;19;20433;-75
2023/10/28 06:50:00;;;;;;;20.17;7.13;;;;;;;;;;7367588;19;20054;-73
2023/10/28 06:52:25;;;;;;;27.95;15.43;;;;;;;;;;7365759;19;20006;-73
2023/10/28 06:54:51;;;;;;;19.00;5.88;;;;;;;;;;7365569;19;20013;-73
2023/10/28 06:57:17;;;;;;;13.23;4.38;;;;;;;;;;7388491;19;20845;-73
2023/10/28 06:59:42;;;;;;;13.63;5.20;;;;;;;;;;7364564;19;20017;-73
2023/10/28 07:02:07;;;;;;;15.55;6.90;;;;;;;;;;7364945;19;20026;-73
2023/10/28 07:04:33;;;;;;;8.90;2.95;;;;;;;;;;7365807;19;20014;-74
2023/10/28 07:07:01;;;;;;;11.02;4.03;;;;;;;;;;7365759;19;20073;-75
2023/10/28 07:09:26;;;;;;;12.65;3.78;;;;;;;;;;7380857;19;20011;-72
2023/10/28 07:11:54;;;;;;;9.35;3.10;;;;;;;;;;7364884;19;20081;-73
2023/10/28 07:14:19;;;;;;;10.23;3.35;;;;;;;;;;7365257;19;20010;-74
2023/10/28 07:16:44;;;;;;;6.15;2.75;;;;;;;;;;7365383;19;20010;-72
2023/10/28 07:19:12;;;;;;;10.27;2.40;;;;;;;;;;7365781;19;20006;-73
2023/10/28 07:21:37;;;;;;;6.45;2.20;;;;;;;;;;7387310;19;20379;-72
2023/10/28 07:24:04;;;;;;;9.68;3.08;;;;;;;;;;7362069;19;20098;-74
2023/10/28 07:26:30;;;;;;;8.93;2.50;;;;;;;;;;7365335;19;20037;-74
2023/10/28 07:28:55;;;;;;;12.55;3.25;;;;;;;;;;7364397;19;20005;-74
2023/10/28 07:31:20;;;;;;;8.65;2.28;;;;;;;;;;7364876;19;20458;-74
2023/10/28 07:33:46;;;;;;;11.90;2.78;;;;;;;;;;7363518;19;19999;-75
2023/10/28 07:36:12;;;;;;;9.02;2.38;;;;;;;;;;7386695;19;20012;-72
2023/10/28 07:38:38;;;;;;;8.93;2.38;;;;;;;;;;7364540;19;20006;-72
2023/10/28 07:41:04;;;;;;;8.52;3.65;;;;;;;;;;7365023;19;20023;-72
2023/10/28 07:43:29;;;;;;;18.30;6.40;;;;;;;;;;7363119;19;20006;-72
2023/10/28 07:45:55;;;;;;;20.20;7.97;;;;;;;;;;7365059;19;20062;-72
2023/10/28 07:48:21;;;;;;;26.58;10.88;;;;;;;;;;7386421;19;20480;-72
2023/10/28 07:50:48;;;;;;;24.63;9.55;;;;;;;;;;7364689;19;20082;-74
2023/10/28 07:53:13;;;;;;;24.05;9.40;;;;;;;;;;7362297;19;20003;-74
2023/10/28 07:55:39;;;;;;;14.82;6.97;;;;;;;;;;7364432;19;20010;-73
2023/10/28 07:58:05;;;;;;;17.00;6.20;;;;;;;;;;7366647;19;20194;-73
2023/10/28 08:00:31;;;;;;;11.02;3.88;;;;;;;;;;7396291;19;20078;-73
2023/10/28 08:02:56;;;;;;;11.63;5.07;;;;;;;;;;7371794;19;20028;-73
2023/10/28 08:05:22;;;;;;;11.77;4.57;;;;;;;;;;7372996;19;20008;-73
2023/10/28 08:07:48;;;;;;;12.75;4.80;;;;;;;;;;7372359;19;20010;-72
2023/10/28 08:10:14;;;;;;;11.63;3.88;;;;;;;;;;7370435;19;20369;-74
2023/10/28 08:12:39;;;;;;;9.70;2.90;;;;;;;;;;7393004;19;20014;-72
2023/10/28 08:15:07;;;;;;;8.88;3.03;;;;;;;;;;7371144;19;20385;-72
2023/10/28 08:17:33;;;;;;;9.32;2.47;;;;;;;;;;7371702;19;20289;-73
2023/10/28 08:19:59;;;;;;;8.82;2.53;;;;;;;;;;7371931;19;20118;-74
2023/10/28 08:22:24;;;;;;;7.55;2.38;;;;;;;;;;7369493;19;20011;-74
2023/10/28 08:24:50;;;;;;;9.27;2.67;;;;;;;;;;7371011;19;20019;-74
2023/10/28 08:27:15;;;;;;;42.38;26.35;;;;;;;;;;7393360;19;19991;-74
2023/10/28 08:29:43;;;;;;;6.00;2.50;;;;;;;;;;7370133;19;20002;-74
2023/10/28 08:32:08;;;;;;;8.70;2.28;;;;;;;;;;7370793;19;20002;-72
2023/10/28 08:34:34;;;;;;;6.05;2.70;;;;;;;;;;7371573;19;19998;-74
2023/10/28 08:36:59;;;;;;;9.50;2.22;;;;;;;;;;7371603;19;19995;-73
2023/10/28 08:39:25;;;;;;;8.70;2.75;;;;;;;;;;7392942;19;20002;-73
2023/10/28 08:41:51;;;;;;;7.07;2.15;;;;;;;;;;7370711;19;20054;-73
2023/10/28 08:44:27;;;;;;;8.60;2.17;;;;;;;;;;7370213;19;20511;-73
2023/10/28 08:46:53;;;;;;;6.82;2.33;;;;;;;;;;7370675;19;20373;-73
2023/10/28 08:49:21;;;;;;;6.45;1.80;;;;;;;;;;7370385;19;20017;-73
2023/10/28 08:51:51;;;;;;;8.35;2.03;;;;;;;;;;7380311;19;20019;-74
2023/10/28 08:54:18;;;;;;;8.77;2.28;;;;;;;;;;7398500;19;20031;-73
2023/10/28 08:56:46;;;;;;;5.88;1.83;;;;;;;;;;7376120;19;19998;-73
2023/10/28 08:59:12;;;;;;;9.57;2.40;;;;;;;;;;7372828;19;20118;-72
2023/10/28 09:01:37;;;;;;;8.30;2.15;;;;;;;;;;7371416;19;20015;-72
2023/10/28 09:04:06;;;;;;;6.28;1.85;;;;;;;;;;7368154;19;20070;-72
2023/10/28 09:06:32;;;;;;;6.90;1.60;;;;;;;;;;7393514;19;20356;-73
2023/10/28 09:08:58;;;;;;;8.10;2.17;;;;;;;;;;7369962;19;20486;-72
2023/10/28 09:11:24;;;;;;;6.72;1.90;;;;;;;;;;7367920;19;20069;-72
2023/10/28 09:13:49;;;;;;;8.95;1.98;;;;;;;;;;7367595;19;20023;-72
2023/10/28 09:16:15;;;;;;;6.00;1.88;;;;;;;;;;7369277;19;20019;-72
2023/10/28 09:18:42;;;;;;;7.70;1.90;;;;;;;;;;7390336;19;20002;-73
2023/10/28 09:21:09;;;;;;;15.45;2.67;;;;;;;;;;7370597;19;20480;-73
2023/10/28 09:23:35;;;;;;;8.70;2.35;;;;;;;;;;7368755;19;20042;-73
2023/10/28 09:26:00;;;;;;;5.10;1.80;;;;;;;;;;7371168;19;20571;-73
2023/10/28 09:28:26;;;;;;;15.23;2.40;;;;;;;;;;7368378;19;20030;-75
2023/10/28 09:30:51;;;;;;;9.75;2.00;;;;;;;;;;7369217;19;20009;-74
2023/10/28 09:33:18;;;;;;;8.43;2.10;;;;;;;;;;7389869;19;19998;-74
2023/10/28 09:35:45;;;;;;;8.15;2.03;;;;;;;;;;7369236;19;20009;-74
2023/10/28 09:38:11;;;;;;;7.55;2.15;;;;;;;;;;7368687;19;20007;-74
2023/10/28 09:40:37;;;;;;;6.55;1.90;;;;;;;;;;7369677;19;20048;-73
2023/10/28 09:43:04;;;;;;;9.30;2.20;;;;;;;;;;7368818;19;20558;-74
2023/10/28 09:45:30;;;;;;;8.48;2.25;;;;;;;;;;7391085;19;20440;-74
2023/10/28 09:47:58;;;;;;;9.40;2.40;;;;;;;;;;7369646;19;20029;-73
2023/10/28 09:50:27;;;;;;;8.27;2.20;;;;;;;;;;7368422;19;20044;-74
2023/10/28 09:52:54;;;;;;;7.32;2.10;;;;;;;;;;7369034;19;20006;-73
2023/10/28 09:55:24;;;;;;;6.10;1.90;;;;;;;;;;7372100;19;20069;-74
2023/10/28 09:57:56;;;;;;;7.57;1.90;;;;;;;;;;7370443;19;20011;-74
2023/10/28 10:00:25;;;;;;;8.90;2.28;;;;;;;;;;7392788;19;19998;-73
2023/10/28 10:03:29;;;;;;;8.82;2.10;;;;;;;;;;7372968;19;20007;-75
2023/10/28 10:05:55;;;;;;;6.45;2.08;;;;;;;;;;7375442;19;20010;-75
2023/10/28 10:08:22;;;;;;;14.23;2.80;;;;;;;;;;7375070;19;20006;-74
2023/10/28 10:10:49;;;;;;;5.97;1.90;;;;;;;;;;7372936;19;20413;-75
2023/10/28 10:13:15;;;;;;;7.85;2.00;;;;;;;;;;7376362;19;20006;-75
2023/10/28 10:15:48;;;;;;;8.25;2.20;;;;;;;;;;7397528;19;20014;-74
2023/10/28 10:18:22;;;;;;;7.13;2.13;;;;;;;;;;7375306;19;20006;-74
2023/10/28 10:20:47;;;;;;;7.90;2.00;;;;;;;;;;7373620;19;20017;-74
2023/10/28 10:23:14;;;;;;;10.85;2.30;;;;;;;;;;7373403;19;20282;-74
2023/10/28 10:25:46;;;;;;;7.93;2.10;;;;;;;;;;7372755;19;20485;-75
2023/10/28 10:28:15;;;;;;;9.90;2.13;;;;;;;;;;7376682;19;20013;-76
2023/10/28 10:30:42;;;;;;;7.15;1.90;;;;;;;;;;7397835;19;20003;-75
2023/10/28 10:33:07;;;;;;;10.90;2.30;;;;;;;;;;7375833;19;20428;-74
2023/10/28 10:35:34;;;;;;;11.00;2.45;;;;;;;;;;7376343;19;20006;-74
2023/10/28 10:38:04;;;;;;;8.95;2.08;;;;;;;;;;7372749;19;20069;-74
2023/10/28 10:40:41;;;;;;;10.15;2.25;;;;;;;;;;7374424;19;20025;-74
2023/10/28 10:43:08;;;;;;;10.15;2.28;;;;;;;;;;7373058;19;20010;-74
2023/10/28 10:45:35;;;;;;;11.70;2.22;;;;;;;;;;7395861;19;20002;-75
2023/10/28 10:48:02;;;;;;;8.10;2.10;;;;;;;;;;7373214;19;20010;-74
2023/10/28 10:50:28;;;;;;;9.30;1.90;;;;;;;;;;7371308;19;20014;-74
2023/10/28 10:52:54;;;;;;;8.60;2.20;;;;;;;;;;7370471;19;20050;-75
2023/10/28 10:55:23;;;;;;;11.68;5.55;;;;;;;;;;7374698;19;20026;-74
2023/10/28 10:57:51;;;;;;;10.80;2.53;;;;;;;;;;7374606;19;20003;-75
2023/10/28 11:00:18;;;;;;;11.80;2.50;;;;;;;;;;7396939;19;20369;-74
2023/10/28 11:02:44;;;;;;;10.65;2.80;;;;;;;;;;7373740;19;20006;-74
2023/10/28 11:05:10;;;;;;;11.68;2.58;;;;;;;;;;7375258;19;20076;-74
2023/10/28 11:07:36;;;;;;;11.07;2.58;;;;;;;;;;7373912;19;20011;-74
2023/10/28 11:10:04;;;;;;;14.20;2.30;;;;;;;;;;7371805;19;20041;-74
2023/10/28 11:12:30;;;;;;;10.60;2.80;;;;;;;;;;7395814;19;19999;-74
2023/10/28 11:14:56;;;;;;;9.70;2.25;;;;;;;;;;7372497;19;20010;-74
2023/10/28 11:17:23;;;;;;;7.47;1.80;;;;;;;;;;7373255;19;20013;-74
2023/10/28 11:19:49;;;;;;;8.60;2.30;;;;;;;;;;7373068;19;20035;-74
2023/10/28 11:22:16;;;;;;;10.20;2.50;;;;;;;;;;7371058;19;20082;-73
2023/10/28 11:24:42;;;;;;;7.93;2.05;;;;;;;;;;7391260;19;20007;-74
2023/10/28 11:27:07;;;;;;;8.73;2.55;;;;;;;;;;7370487;19;20043;-74
2023/10/28 11:29:37;;;;;;;8.88;2.20;;;;;;;;;;7366894;19;20364;-74
2023/10/28 11:32:07;;;;;;;7.53;2.00;;;;;;;;;;7365427;19;20023;-75
2023/10/28 11:34:38;;;;;;;8.02;2.10;;;;;;;;;;7372038;19;20086;-74
2023/10/28 11:37:07;;;;;;;7.53;1.70;;;;;;;;;;7373815;19;20382;-74
2023/10/28 11:39:34;;;;;;;6.13;1.80;;;;;;;;;;7394995;19;20694;-74
2023/10/28 11:42:20;;;;;;;6.20;2.08;;;;;;;;;;7372599;19;20014;-74
2023/10/28 11:44:50;;;;;;;4.63;1.60;;;;;;;;;;7370340;19;20107;-75
2023/10/28 11:47:17;;;;;;;7.93;1.90;;;;;;;;;;7372070;19;20326;-74
2023/10/28 11:49:42;;;;;;;8.55;2.03;;;;;;;;;;7370382;19;20551;-74
2023/10/28 11:52:11;;;;;;;10.68;2.28;;;;;;;;;;7372860;19;20015;-75
2023/10/28 11:54:36;;;;;;;8.45;2.10;;;;;;;;;;7393797;19;20002;-73
2023/10/28 11:57:02;;;;;;;10.02;2.38;;;;;;;;;;7371245;19;20022;-75
2023/10/28 11:59:27;;;;;;;7.25;2.05;;;;;;;;;;7371607;19;20011;-74
2023/10/28 12:01:53;;;;;;;8.52;2.40;;;;;;;;;;7372506;19;20006;-74
2023/10/28 12:04:20;;;;;;;7.68;1.80;;;;;;;;;;7372663;19;20078;-74
2023/10/28 12:06:46;;;;;;;7.65;2.10;;;;;;;;;;7371650;19;20087;-76
2023/10/28 12:09:12;;;;;;;9.43;2.35;;;;;;;;;;7392028;19;20019;-73
2023/10/28 12:11:38;;;;;;;13.10;2.30;;;;;;;;;;7372533;19;20006;-75
2023/10/28 12:14:05;;;;;;;11.30;2.15;;;;;;;;;;7374919;19;20013;-75
2023/10/28 12:16:33;;;;;;;11.05;2.30;;;;;;;;;;7377344;19;20007;-75
2023/10/28 12:18:58;;;;;;;12.73;2.50;;;;;;;;;;7375572;19;20341;-74
2023/10/28 12:21:23;;;;;;;11.40;2.60;;;;;;;;;;7397059;19;20062;-73
2023/10/28 12:23:49;;;;;;;11.23;2.40;;;;;;;;;;7372929;19;20003;-73
2023/10/28 12:26:14;;;;;;;6.95;2.10;;;;;;;;;;7371711;19;20014;-73
2023/10/28 12:28:40;;;;;;;8.77;2.92;;;;;;;;;;7371123;19;20010;-73
2023/10/28 12:31:05;;;;;;;10.82;2.70;;;;;;;;;;7370637;19;20018;-73
2023/10/28 12:33:31;;;;;;;11.95;2.60;;;;;;;;;;7390342;19;19997;-73
2023/10/28 12:35:57;;;;;;;9.52;2.28;;;;;;;;;;7370748;19;19999;-74
2023/10/28 12:38:23;;;;;;;11.80;2.58;;;;;;;;;;7370293;19;20036;-75
2023/10/28 12:40:49;;;;;;;8.32;2.17;;;;;;;;;;7371271;19;20006;-73
2023/10/28 12:43:14;;;;;;;10.20;2.17;;;;;;;;;;7369179;19;20081;-75
2023/10/28 12:45:40;;;;;;;11.48;2.35;;;;;;;;;;7390541;19;19998;-74
2023/10/28 12:48:05;;;;;;;12.27;3.28;;;;;;;;;;7370922;19;20015;-75
2023/10/28 12:50:31;;;;;;;11.90;2.60;;;;;;;;;;7370416;19;20014;-74
2023/10/28 12:52:57;;;;;;;8.68;2.42;;;;;;;;;;7370792;19;20011;-76
2023/10/28 12:55:23;;;;;;;12.52;2.80;;;;;;;;;;7370557;19;20041;-75
2023/10/28 12:57:49;;;;;;;14.65;2.95;;;;;;;;;;7371233;19;20014;-75
2023/10/28 13:00:15;;;;;;;11.38;2.30;;;;;;;;;;7391905;19;20002;-74
2023/10/28 13:02:41;;;;;;;9.02;2.20;;;;;;;;;;7368102;19;20396;-74
2023/10/28 13:05:07;;;;;;;9.95;2.70;;;;;;;;;;7369387;19;20043;-74
2023/10/28 13:07:34;;;;;;;14.63;2.80;;;;;;;;;;7369814;19;20014;-74
2023/10/28 13:10:00;;;;;;;13.60;2.80;;;;;;;;;;7368772;19;20483;-73
2023/10/28 13:12:26;;;;;;;10.48;2.65;;;;;;;;;;7391005;19;20485;-74
2023/10/28 13:14:51;;;;;;;12.50;2.78;;;;;;;;;;7367971;19;20002;-72
2023/10/28 13:17:17;;;;;;;9.45;2.80;;;;;;;;;;7370967;19;20120;-74
2023/10/28 13:19:42;;;;;;;13.07;5.05;;;;;;;;;;7370741;19;19998;-72
2023/10/28 13:22:10;;;;;;;10.80;2.65;;;;;;;;;;7370557;19;20401;-73
2023/10/28 13:24:36;;;;;;;11.73;2.90;;;;;;;;;;7392255;19;19990;-73
2023/10/28 13:27:03;;;;;;;8.48;2.17;;;;;;;;;;7369879;19;20030;-74
2023/10/28 13:29:28;;;;;;;12.38;2.97;;;;;;;;;;7367010;19;20017;-73
2023/10/28 13:31:53;;;;;;;12.82;2.80;;;;;;;;;;7369109;19;20015;-74
2023/10/28 13:34:20;;;;;;;11.23;3.08;;;;;;;;;;7368059;19;20334;-74
2023/10/28 13:36:45;;;;;;;11.57;2.97;;;;;;;;;;7374569;19;19995;-73
2023/10/28 13:39:11;;;;;;;9.57;2.67;;;;;;;;;;7390302;19;20010;-75
2023/10/28 13:41:36;;;;;;;10.48;2.20;;;;;;;;;;7368460;19;20734;-73
2023/10/28 13:44:01;;;;;;;8.05;1.90;;;;;;;;;;7367224;19;20378;-73
2023/10/28 13:46:27;;;;;;;7.78;2.08;;;;;;;;;;7368647;19;20367;-73
2023/10/28 13:48:52;;;;;;;8.73;3.20;;;;;;;;;;7368445;19;19995;-73
2023/10/28 13:51:18;;;;;;;11.38;2.92;;;;;;;;;;7388726;19;19999;-74
2023/10/28 13:53:43;;;;;;;8.88;2.35;;;;;;;;;;7366451;19;19999;-74
2023/10/28 13:56:10;;;;;;;8.38;2.80;;;;;;;;;;7367314;19;20074;-74
2023/10/28 13:58:36;;;;;;;7.55;1.85;;;;;;;;;;7367206;19;20074;-74
2023/10/28 14:01:06;;;;;;;9.73;2.40;;;;;;;;;;7368617;19;20372;-74
2023/10/28 14:03:32;;;;;;;4.88;1.75;;;;;;;;;;7388962;19;20543;-74
2023/10/28 14:05:58;;;;;;;8.30;2.33;;;;;;;;;;7368549;19;20010;-74
2023/10/28 14:08:24;;;;;;;7.80;2.15;;;;;;;;;;7366679;19;20003;-74
2023/10/28 14:10:50;;;;;;;7.97;1.98;;;;;;;;;;7368888;19;20090;-74
2023/10/28 14:13:15;;;;;;;6.10;2.00;;;;;;;;;;7367142;19;20352;-74
2023/10/28 14:15:42;;;;;;;8.45;2.30;;;;;;;;;;7389773;19;19995;-74
2023/10/28 14:18:13;;;;;;;7.32;2.13;;;;;;;;;;7367860;19;20007;-74
2023/10/28 14:20:38;;;;;;;9.23;2.17;;;;;;;;;;7368360;19;20006;-74
2023/10/28 14:23:04;;;;;;;8.73;2.10;;;;;;;;;;7368539;19;19999;-74
2023/10/28 14:25:29;;;;;;;5.93;1.95;;;;;;;;;;7367546;19;20006;-74
2023/10/28 14:27:54;;;;;;;9.13;1.90;;;;;;;;;;7367349;19;19998;-74
2023/10/28 14:30:20;;;;;;;6.88;2.05;;;;;;;;;;7389418;19;20003;-74
2023/10/28 14:32:45;;;;;;;5.30;1.70;;;;;;;;;;7367405;19;20006;-74
2023/10/28 14:35:11;;;;;;;5.10;1.60;;;;;;;;;;7369260;19;20100;-74